createdAt,value
2023-06-30T00:00:32.181Z,100041.40
2023-06-30T00:03:26.726Z,100036.00
2023-06-30T00:06:01.268Z,100034.00
2023-06-30T00:08:35.536Z,100035.40
2023-06-30T00:11:09.748Z,100026.20
2023-06-30T00:13:44.088Z,100029.00
2023-06-30T00:16:18.364Z,100023.60
2023-06-30T00:18:57.036Z,100027.00
2023-06-30T00:21:31.396Z,100023.20
2023-06-30T00:24:06.347Z,100022.00
2023-06-30T00:26:41.319Z,100021.00
2023-06-30T00:29:17.240Z,100018.40
2023-06-30T00:31:51.764Z,100017.20
2023-06-30T00:34:26.945Z,100012.80
2023-06-30T00:37:01.260Z,100013.60
2023-06-30T00:39:35.649Z,100015.60
2023-06-30T00:42:11.997Z,100013.80
2023-06-30T00:44:46.469Z,100009.80
2023-06-30T00:47:20.872Z,100008.60
2023-06-30T00:49:56.038Z,100008.60
2023-06-30T00:52:30.906Z,100007.40
2023-06-30T00:55:05.914Z,100006.20
2023-06-30T00:57:40.170Z,100003.00
2023-06-30T01:00:16.831Z,99997.40
2023-06-30T01:03:04.395Z,99995.80
2023-06-30T01:05:49.977Z,99987.80
2023-06-30T01:08:36.806Z,99983.80
2023-06-30T01:11:12.885Z,99980.20
2023-06-30T01:13:49.487Z,99977.00
2023-06-30T01:16:25.939Z,99975.80
2023-06-30T01:19:03.761Z,99975.40
2023-06-30T01:21:39.217Z,99968.80
2023-06-30T01:24:17.767Z,99972.00
2023-06-30T01:26:53.087Z,99974.80
2023-06-30T01:29:28.457Z,99973.00
2023-06-30T01:32:03.338Z,99972.40
2023-06-30T01:34:39.131Z,99966.60
2023-06-30T01:37:13.557Z,99967.60
2023-06-30T01:39:47.844Z,99962.40
2023-06-30T01:42:23.388Z,99963.20
2023-06-30T01:45:00.371Z,99961.60
2023-06-30T01:47:35.898Z,99956.40
2023-06-30T01:50:12.856Z,99959.60
2023-06-30T01:52:47.238Z,99954.60
2023-06-30T01:55:22.110Z,99953.20
2023-06-30T01:57:59.534Z,99958.60
2023-06-30T02:00:33.894Z,99953.00
2023-06-30T02:03:08.245Z,99950.60
2023-06-30T02:05:42.851Z,99952.60
2023-06-30T02:08:17.540Z,99948.80
2023-06-30T02:10:52.920Z,99950.60
2023-06-30T02:13:27.214Z,99951.20
2023-06-30T02:16:01.630Z,99950.20
2023-06-30T02:18:35.901Z,99947.60
2023-06-30T02:21:10.306Z,99940.00
2023-06-30T02:23:44.468Z,99944.00
2023-06-30T02:26:19.063Z,99941.00
2023-06-30T02:28:53.399Z,99942.80
2023-06-30T02:31:27.973Z,99935.20
2023-06-30T02:34:02.157Z,99936.60
2023-06-30T02:36:37.180Z,99934.00
2023-06-30T02:39:11.372Z,99936.60
2023-06-30T02:41:45.543Z,99935.00
2023-06-30T02:44:20.619Z,99929.40
2023-06-30T02:46:56.002Z,99925.80
2023-06-30T02:49:31.601Z,99922.00
2023-06-30T02:52:08.179Z,99920.40
2023-06-30T02:54:42.463Z,99920.60
2023-06-30T02:57:17.157Z,99923.20
2023-06-30T02:59:51.864Z,99915.80
2023-06-30T03:02:26.627Z,99915.40
2023-06-30T03:05:01.720Z,99919.40
2023-06-30T03:07:36.942Z,99917.40
2023-06-30T03:10:13.929Z,99918.40
2023-06-30T03:12:49.338Z,99918.20
2023-06-30T03:15:25.446Z,99916.40
2023-06-30T03:17:59.949Z,99918.60
2023-06-30T03:20:34.314Z,99920.40
2023-06-30T03:23:08.658Z,99916.60
2023-06-30T03:25:43.552Z,99905.80
2023-06-30T03:28:18.249Z,99908.20
2023-06-30T03:30:53.321Z,99908.00
2023-06-30T03:33:28.208Z,99901.20
2023-06-30T03:36:02.404Z,99899.20
2023-06-30T03:38:37.421Z,99896.20
2023-06-30T03:41:11.843Z,99888.40
2023-06-30T03:43:46.119Z,99893.00
2023-06-30T03:46:20.481Z,99893.80
2023-06-30T03:48:57.915Z,99890.00
2023-06-30T03:51:32.302Z,99888.20
2023-06-30T03:54:07.638Z,99886.00
2023-06-30T03:56:44.042Z,99885.40
2023-06-30T03:59:19.007Z,99884.00
2023-06-30T04:01:54.011Z,99884.20
2023-06-30T04:04:28.630Z,99884.60
2023-06-30T04:07:03.589Z,99880.20
2023-06-30T04:09:37.874Z,99882.20
2023-06-30T04:12:14.583Z,99881.00
2023-06-30T04:14:49.720Z,99880.80
2023-06-30T04:17:24.034Z,99886.60
2023-06-30T04:19:59.538Z,99883.40
2023-06-30T04:22:33.927Z,99891.00
2023-06-30T04:25:10.149Z,99891.20
2023-06-30T04:27:44.488Z,99891.40
2023-06-30T04:30:19.935Z,99891.80
2023-06-30T04:32:54.107Z,99889.40
2023-06-30T04:35:28.721Z,99887.60
2023-06-30T04:38:03.964Z,99882.80
2023-06-30T04:40:38.254Z,99886.20
2023-06-30T04:43:13.894Z,99877.80
2023-06-30T04:45:48.742Z,99876.80
2023-06-30T04:48:23.057Z,99876.00
2023-06-30T04:50:57.300Z,99874.60
2023-06-30T04:53:33.284Z,99867.80
2023-06-30T04:56:08.151Z,99869.80
2023-06-30T04:58:42.976Z,99870.40
2023-06-30T05:01:17.206Z,99868.00
2023-06-30T05:03:51.590Z,99874.00
2023-06-30T05:06:25.828Z,99861.20
2023-06-30T05:09:00.142Z,99859.20
2023-06-30T05:11:34.449Z,99862.80
2023-06-30T05:14:09.258Z,99864.80
2023-06-30T05:16:43.661Z,99856.00
2023-06-30T05:19:18.192Z,99856.00
2023-06-30T05:21:54.686Z,99856.80
2023-06-30T05:24:29.133Z,99857.20
2023-06-30T05:27:03.355Z,99857.60
2023-06-30T05:29:38.002Z,99862.60
2023-06-30T05:32:13.734Z,99862.40
2023-06-30T05:34:48.962Z,99873.20
2023-06-30T05:37:23.684Z,99872.40
2023-06-30T05:39:58.129Z,99875.60
2023-06-30T05:42:32.482Z,99875.20
2023-06-30T05:45:08.208Z,99873.60
2023-06-30T05:47:42.629Z,99871.20
2023-06-30T05:50:18.437Z,99866.60
2023-06-30T05:52:52.696Z,99857.00
2023-06-30T05:55:27.204Z,99855.00
2023-06-30T05:58:01.452Z,99859.40
2023-06-30T06:00:36.842Z,99860.20
2023-06-30T06:03:11.711Z,99860.00
2023-06-30T06:05:46.872Z,99856.80
2023-06-30T06:08:21.456Z,99856.00
2023-06-30T06:10:55.988Z,99850.60
2023-06-30T06:13:41.486Z,99849.60
2023-06-30T06:16:15.807Z,99846.80
2023-06-30T06:18:50.173Z,99843.40
2023-06-30T06:21:27.658Z,99844.40
2023-06-30T06:24:01.952Z,99847.40
2023-06-30T06:26:37.258Z,99850.40
2023-06-30T06:29:14.208Z,99846.40
2023-06-30T06:31:50.124Z,99847.60
2023-06-30T06:34:25.389Z,99848.00
2023-06-30T06:36:59.691Z,99846.20
2023-06-30T06:39:34.578Z,99843.80
2023-06-30T06:42:10.137Z,99846.20
2023-06-30T06:44:45.845Z,99839.80
2023-06-30T06:48:12.193Z,99835.80
2023-06-30T06:50:46.649Z,99834.60
2023-06-30T06:53:29.450Z,99836.20
2023-06-30T06:56:05.147Z,99836.20
2023-06-30T06:58:40.468Z,99830.40
2023-06-30T07:01:16.451Z,99837.20
2023-06-30T07:03:50.792Z,99831.60
2023-06-30T07:06:25.934Z,99827.40
2023-06-30T07:09:00.356Z,99829.80
2023-06-30T07:11:36.430Z,99828.80
2023-06-30T07:14:10.710Z,99825.60
2023-06-30T07:16:45.014Z,99825.60
2023-06-30T07:19:19.386Z,99817.60
2023-06-30T07:21:55.383Z,99817.80
2023-06-30T07:24:41.829Z,99818.40
2023-06-30T07:27:17.220Z,99820.00
2023-06-30T07:29:52.029Z,99810.40
2023-06-30T07:32:26.700Z,99809.60
2023-06-30T07:35:01.052Z,99805.80
2023-06-30T07:37:35.365Z,99804.00
2023-06-30T07:40:16.536Z,99804.60
2023-06-30T07:42:52.194Z,99805.80
2023-06-30T07:45:26.600Z,99799.60
2023-06-30T07:48:00.906Z,99801.20
2023-06-30T07:50:36.356Z,99798.40
2023-06-30T07:53:10.877Z,99798.20
2023-06-30T07:55:45.552Z,99798.00
2023-06-30T07:58:20.102Z,99797.60
2023-06-30T08:00:54.401Z,99798.80
2023-06-30T08:03:29.038Z,99795.00
2023-06-30T08:06:04.038Z,99796.80
2023-06-30T08:08:38.882Z,99791.20
2023-06-30T08:11:13.255Z,99790.40
2023-06-30T08:13:47.564Z,99791.40
2023-06-30T08:16:22.009Z,99791.60
2023-06-30T08:18:56.415Z,99787.40
2023-06-30T08:21:31.053Z,99789.60
2023-06-30T08:24:07.719Z,99787.20
2023-06-30T08:26:42.504Z,99787.60
2023-06-30T08:29:16.905Z,99786.40
2023-06-30T08:31:53.859Z,99780.20
2023-06-30T08:34:29.032Z,99780.60
2023-06-30T08:37:04.042Z,99780.40
2023-06-30T08:39:39.634Z,99780.20
2023-06-30T08:42:16.626Z,99780.40
2023-06-30T08:44:53.897Z,99777.20
2023-06-30T08:47:33.732Z,99780.40
2023-06-30T08:50:12.039Z,99777.60
2023-06-30T08:52:46.859Z,99779.60
2023-06-30T08:55:22.138Z,99784.00
2023-06-30T08:58:00.286Z,99780.60
2023-06-30T09:00:39.369Z,99778.00
2023-06-30T09:03:14.108Z,99782.20
2023-06-30T09:05:50.616Z,99780.00
2023-06-30T09:08:31.305Z,99781.00
2023-06-30T09:11:09.188Z,99775.00
2023-06-30T09:13:47.772Z,99775.40
2023-06-30T09:16:22.793Z,99776.60
2023-06-30T09:18:57.368Z,99776.80
2023-06-30T09:21:31.773Z,99785.20
2023-06-30T09:24:07.357Z,99784.80
2023-06-30T09:26:42.007Z,99782.60
2023-06-30T09:29:16.412Z,99785.80
2023-06-30T09:43:17.644Z,99784.20
2023-06-30T09:45:58.704Z,99788.80
2023-06-30T09:48:39.990Z,99786.20
2023-06-30T09:51:20.655Z,99780.60
2023-06-30T09:53:58.368Z,99782.20
2023-06-30T09:56:33.731Z,99784.40
2023-06-30T09:59:10.521Z,99781.00
2023-06-30T10:01:45.710Z,99774.40
2023-06-30T10:04:20.486Z,99776.40
2023-06-30T10:06:57.525Z,99776.00
2023-06-30T10:09:34.291Z,99777.80
2023-06-30T10:12:12.204Z,99778.60
2023-06-30T10:14:49.823Z,99778.80
2023-06-30T10:17:25.077Z,99777.40
2023-06-30T10:20:04.586Z,99777.80
2023-06-30T10:22:40.777Z,99776.20
2023-06-30T10:25:19.579Z,99777.60
2023-06-30T10:27:54.328Z,99775.00
2023-06-30T10:30:30.285Z,99774.80
2023-06-30T10:33:05.129Z,99777.40
2023-06-30T10:35:43.149Z,99781.00
2023-06-30T10:38:20.255Z,99781.80
2023-06-30T10:41:17.503Z,99780.20
2023-06-30T10:44:14.514Z,99775.60
2023-06-30T10:46:58.555Z,99780.80
2023-06-30T10:49:37.690Z,99778.80
2023-06-30T10:52:33.537Z,99771.80
2023-06-30T10:55:20.531Z,99768.80
2023-06-30T10:58:00.045Z,99771.80
2023-06-30T11:00:38.448Z,99767.80
2023-06-30T11:03:13.383Z,99765.40
2023-06-30T11:05:48.391Z,99765.80
2023-06-30T11:08:29.089Z,99759.60
2023-06-30T11:11:10.927Z,99758.40
2023-06-30T11:13:46.614Z,99752.00
2023-06-30T11:16:20.936Z,99752.60
2023-06-30T11:19:04.191Z,99755.20
2023-06-30T11:21:44.831Z,99750.00
2023-06-30T11:24:22.435Z,99745.20
2023-06-30T11:26:58.641Z,99743.80
2023-06-30T11:29:37.241Z,99746.20
2023-06-30T11:32:14.369Z,99753.60
2023-06-30T11:34:49.219Z,99757.00
2023-06-30T11:37:25.228Z,99752.20
2023-06-30T11:40:04.045Z,99750.00
2023-06-30T11:42:45.929Z,99745.00
2023-06-30T11:45:22.430Z,99741.00
2023-06-30T11:47:58.611Z,99734.60
2023-06-30T11:50:35.126Z,99736.00
2023-06-30T11:53:11.240Z,99738.80
2023-06-30T11:55:51.541Z,99743.00
2023-06-30T11:58:26.356Z,99741.60
2023-06-30T12:01:04.917Z,99738.60
2023-06-30T12:03:39.438Z,99738.80
2023-06-30T12:06:19.503Z,99742.00
2023-06-30T12:08:54.351Z,99734.00
2023-06-30T12:11:30.657Z,99727.80
2023-06-30T12:14:12.023Z,99727.60
2023-06-30T12:16:49.457Z,99725.60
2023-06-30T12:19:29.687Z,99727.40
2023-06-30T12:22:05.369Z,99725.60
2023-06-30T12:24:43.335Z,99722.60
2023-06-30T12:27:18.010Z,99714.80
2023-06-30T12:29:54.632Z,99713.20
2023-06-30T12:32:32.322Z,99717.60
2023-06-30T12:35:08.694Z,99716.00
2023-06-30T12:37:45.814Z,99712.00
2023-06-30T12:40:21.001Z,99709.00
2023-06-30T12:42:58.968Z,99713.20
2023-06-30T12:45:36.790Z,99715.20
2023-06-30T12:48:18.874Z,99716.00
2023-06-30T12:50:57.663Z,99719.20
2023-06-30T12:53:36.634Z,99721.40
2023-06-30T12:56:14.519Z,99721.20
2023-06-30T12:58:56.125Z,99726.40
2023-06-30T13:01:35.192Z,99720.40
2023-06-30T13:04:11.502Z,99718.40
2023-06-30T13:06:48.071Z,99721.80
2023-06-30T13:09:26.426Z,99725.80
2023-06-30T13:12:01.039Z,99723.40
2023-06-30T13:14:35.651Z,99717.60
2023-06-30T13:17:12.222Z,99719.00
2023-06-30T13:19:46.902Z,99716.80
2023-06-30T13:22:22.159Z,99712.80
2023-06-30T13:25:05.629Z,99708.40
2023-06-30T13:27:46.925Z,99702.60
2023-06-30T13:30:28.024Z,99700.20
2023-06-30T13:33:03.196Z,99704.40
2023-06-30T13:35:38.110Z,99705.20
2023-06-30T13:38:14.167Z,99694.20
2023-06-30T13:40:48.922Z,99692.60
2023-06-30T13:43:26.173Z,99688.60
2023-06-30T13:46:07.119Z,99688.40
2023-06-30T13:48:45.632Z,99690.60
2023-06-30T13:51:22.378Z,99692.00
2023-06-30T13:53:57.229Z,99691.80
2023-06-30T13:56:31.943Z,99690.00
2023-06-30T13:59:06.754Z,99696.20
2023-06-30T14:01:42.465Z,99691.80
2023-06-30T14:04:17.256Z,99697.00
2023-06-30T14:06:52.202Z,99700.80
2023-06-30T14:09:27.483Z,99697.40
2023-06-30T14:12:02.350Z,99700.00
2023-06-30T14:14:36.986Z,99701.60
2023-06-30T14:17:12.361Z,99705.00
2023-06-30T14:19:47.136Z,99705.20
2023-06-30T14:22:22.607Z,99710.80
2023-06-30T14:25:00.350Z,99712.00
2023-06-30T14:27:35.103Z,99711.40
2023-06-30T14:30:12.842Z,99706.00
2023-06-30T14:32:47.675Z,99703.80
2023-06-30T14:35:22.569Z,99697.00
2023-06-30T14:37:57.187Z,99694.60
2023-06-30T14:40:31.987Z,99691.40
2023-06-30T14:43:07.710Z,99683.40
2023-06-30T14:45:42.471Z,99685.60
2023-06-30T14:48:17.610Z,99676.20
2023-06-30T14:50:52.538Z,99673.40
2023-06-30T14:53:27.924Z,99661.80
2023-06-30T14:56:11.739Z,99656.40
2023-06-30T14:58:51.282Z,99650.20
2023-06-30T15:01:32.682Z,99652.60
2023-06-30T15:04:07.814Z,99649.80
2023-06-30T15:06:42.799Z,99639.40
2023-06-30T15:09:17.479Z,99637.40
2023-06-30T15:11:52.468Z,99633.40
2023-06-30T15:14:27.795Z,99635.40
2023-06-30T15:17:02.312Z,99632.60
2023-06-30T15:19:36.997Z,99631.60
2023-06-30T15:22:11.879Z,99635.40
2023-06-30T15:24:46.500Z,99642.20
2023-06-30T15:27:21.457Z,99641.00
2023-06-30T15:29:56.127Z,99645.40
2023-06-30T15:32:31.091Z,99646.00
2023-06-30T15:35:07.195Z,99656.80
2023-06-30T15:37:41.746Z,99662.00
2023-06-30T15:40:17.503Z,99651.60
2023-06-30T15:42:52.192Z,99653.40
2023-06-30T15:45:26.779Z,99643.80
2023-06-30T15:48:01.364Z,99635.60
2023-06-30T15:50:37.089Z,99640.80
2023-06-30T15:53:12.885Z,99657.40
2023-06-30T15:55:48.103Z,99657.60
2023-06-30T15:58:23.354Z,99660.40
2023-06-30T16:00:58.212Z,99658.60
2023-06-30T16:03:32.968Z,99653.00
2023-06-30T16:06:08.021Z,99661.40
2023-06-30T16:09:37.026Z,99665.40
2023-06-30T16:12:12.556Z,99663.00
2023-06-30T16:14:47.194Z,99663.00
2023-06-30T16:17:21.709Z,99663.00
2023-06-30T16:19:56.243Z,99667.00
2023-06-30T16:22:31.000Z,99669.00
2023-06-30T16:25:05.761Z,99670.60
2023-06-30T16:27:41.215Z,99672.80
2023-06-30T16:30:33.509Z,99675.80
2023-06-30T16:33:08.549Z,99675.60
2023-06-30T16:35:43.049Z,99674.20
2023-06-30T16:38:17.700Z,99678.00
2023-06-30T16:40:52.565Z,99675.80
2023-06-30T16:43:27.230Z,99680.00
2023-06-30T16:46:02.424Z,99680.80
2023-06-30T16:48:37.507Z,99682.80
2023-06-30T16:51:12.644Z,99686.20
2023-06-30T16:53:47.344Z,99688.40
2023-06-30T16:56:21.860Z,99688.80
2023-06-30T16:58:56.341Z,99689.20
2023-06-30T17:01:31.518Z,99695.40
2023-06-30T17:04:06.984Z,99699.40
2023-06-30T17:06:42.157Z,99698.60
2023-06-30T17:09:17.894Z,99694.00
2023-06-30T17:11:52.990Z,99698.20
2023-06-30T17:14:27.802Z,99697.20
2023-06-30T17:17:02.876Z,99691.60
2023-06-30T17:22:13.399Z,99684.80
2023-06-30T17:24:47.897Z,99683.40
2023-06-30T17:27:29.203Z,99687.60
2023-06-30T17:30:09.532Z,99683.60
2023-06-30T17:32:47.469Z,99685.80
2023-06-30T17:35:30.062Z,99687.20
2023-06-30T17:38:08.854Z,99684.20
2023-06-30T17:40:46.708Z,99680.40
2023-06-30T17:43:24.924Z,99678.60
2023-06-30T17:46:04.945Z,99675.60
2023-06-30T17:48:49.340Z,99676.60
2023-06-30T17:51:31.339Z,99684.20
2023-06-30T17:54:13.614Z,99682.00
2023-06-30T17:56:55.548Z,99677.00
2023-06-30T17:59:46.513Z,99677.60
2023-06-30T18:02:29.011Z,99685.20
2023-06-30T18:05:08.802Z,99684.00
2023-06-30T18:07:52.560Z,99686.80
2023-06-30T18:10:28.884Z,99688.60
2023-06-30T18:13:11.171Z,99691.20
2023-06-30T18:32:48.966Z,99689.60
2023-06-30T18:35:19.294Z,99696.60
2023-06-30T18:37:50.732Z,99697.60
2023-06-30T18:40:21.032Z,99695.20
2023-06-30T18:42:51.443Z,99698.20
2023-06-30T18:45:22.059Z,99695.00
2023-06-30T18:47:52.321Z,99697.40
2023-06-30T18:50:23.886Z,99700.60
2023-06-30T18:52:54.182Z,99701.00
2023-06-30T18:55:24.544Z,99704.80
2023-06-30T18:57:54.921Z,99707.80
2023-06-30T19:00:25.281Z,99712.00
2023-06-30T19:02:55.790Z,99712.00
2023-06-30T19:05:26.288Z,99712.00
2023-06-30T19:07:56.638Z,99712.20
2023-06-30T19:10:27.758Z,99715.00
2023-06-30T19:12:58.065Z,99718.20
2023-06-30T19:15:28.333Z,99716.60
2023-06-30T19:17:58.650Z,99716.20
2023-06-30T19:20:29.045Z,99721.80
2023-06-30T19:22:59.300Z,99721.40
2023-06-30T19:25:29.704Z,99720.40
2023-06-30T19:28:00.181Z,99725.80
2023-06-30T19:30:30.577Z,99717.20
2023-06-30T19:33:01.047Z,99716.20
2023-06-30T19:35:31.641Z,99716.40
2023-06-30T19:38:02.040Z,99712.20
2023-06-30T19:40:32.395Z,99708.80
2023-06-30T19:43:02.687Z,99705.00
2023-06-30T19:45:33.067Z,99707.40
2023-06-30T19:48:03.543Z,99708.00
2023-06-30T19:50:34.237Z,99707.80
2023-06-30T19:53:04.874Z,99708.60
2023-06-30T19:55:36.243Z,99707.80
2023-06-30T19:58:10.010Z,99710.60
2023-06-30T20:00:41.450Z,99707.20
2023-06-30T20:03:12.127Z,99710.00
2023-06-30T20:05:42.713Z,99709.40
2023-06-30T20:08:12.997Z,99710.00
2023-06-30T20:10:43.802Z,99713.20
2023-06-30T20:13:15.246Z,99712.80
2023-06-30T20:15:47.105Z,99716.00
2023-06-30T20:18:18.432Z,99718.80
2023-06-30T20:20:49.866Z,99718.40
2023-06-30T20:23:20.712Z,99714.00
2023-06-30T20:25:51.825Z,99713.80
2023-06-30T20:28:23.489Z,99708.40
2023-06-30T20:30:54.751Z,99706.00
2023-06-30T20:33:28.208Z,99710.40
2023-06-30T20:35:59.598Z,99707.00
2023-06-30T20:38:31.049Z,99709.40
2023-06-30T20:41:03.189Z,99701.00
2023-06-30T20:43:34.664Z,99706.20
2023-06-30T20:46:05.488Z,99707.60
2023-06-30T20:48:36.042Z,99711.20
2023-06-30T20:51:06.788Z,99711.60
2023-06-30T20:53:39.849Z,99712.20
2023-06-30T20:56:11.570Z,99709.20
2023-06-30T20:58:44.070Z,99701.80
2023-06-30T21:01:15.393Z,99699.80
2023-06-30T21:03:46.482Z,99691.40
2023-06-30T21:06:17.890Z,99691.40
2023-06-30T21:08:51.018Z,99682.60
2023-06-30T21:11:22.675Z,99682.20
2023-06-30T21:13:54.739Z,99674.20
2023-06-30T21:16:26.499Z,99673.40
2023-06-30T21:18:58.058Z,99665.40
2023-06-30T21:21:29.673Z,99658.20
2023-06-30T21:24:00.568Z,99659.00
2023-06-30T21:26:32.823Z,99664.80
2023-06-30T21:29:03.183Z,99661.40
2023-06-30T21:31:34.212Z,99663.60
2023-06-30T21:34:05.543Z,99663.00
2023-06-30T21:36:39.683Z,99659.80
2023-06-30T21:39:10.904Z,99662.20
2023-06-30T21:41:41.344Z,99668.00
2023-06-30T21:44:11.951Z,99666.00
2023-06-30T21:46:42.824Z,99672.40
2023-06-30T21:49:13.271Z,99669.40
2023-06-30T21:51:43.804Z,99661.40
2023-06-30T21:54:16.605Z,99666.00
2023-06-30T21:56:56.280Z,99668.40
2023-06-30T21:59:26.709Z,99666.00
2023-06-30T22:01:57.702Z,99664.20
2023-06-30T22:04:28.693Z,99661.20
2023-06-30T22:07:03.906Z,99652.20
2023-06-30T22:09:34.388Z,99655.60
2023-06-30T22:12:06.590Z,99651.60
2023-06-30T22:14:37.918Z,99649.40
2023-06-30T22:17:08.676Z,99654.00
2023-06-30T22:19:39.014Z,99657.20
2023-06-30T22:22:09.460Z,99654.20
2023-06-30T22:24:40.349Z,99652.80
2023-06-30T22:27:10.685Z,99650.40
2023-06-30T22:29:41.059Z,99652.20
2023-06-30T22:32:13.931Z,99647.00
2023-06-30T22:34:44.227Z,99642.40
2023-06-30T22:37:14.967Z,99649.40
2023-06-30T22:39:45.219Z,99650.40
2023-06-30T22:42:15.780Z,99652.40
2023-06-30T22:44:46.113Z,99658.20
2023-06-30T22:47:17.130Z,99655.60
2023-06-30T22:49:47.535Z,99654.60
2023-06-30T22:52:17.786Z,99656.00
2023-06-30T22:54:47.991Z,99657.00
2023-06-30T22:57:18.551Z,99657.00
2023-06-30T22:59:51.738Z,99654.20
2023-06-30T23:02:22.096Z,99651.60
2023-06-30T23:04:52.435Z,99650.20
2023-06-30T23:07:22.838Z,99652.80
2023-06-30T23:09:53.085Z,99654.60
2023-06-30T23:12:23.417Z,99657.20
2023-06-30T23:14:53.877Z,99658.40
2023-06-30T23:17:27.213Z,99656.40
2023-06-30T23:19:58.305Z,99658.80
2023-06-30T23:22:30.517Z,99655.20
2023-06-30T23:25:01.797Z,99650.40
2023-06-30T23:27:34.811Z,99652.80
2023-06-30T23:30:06.707Z,99647.20
2023-06-30T23:32:46.422Z,99645.40
2023-06-30T23:35:16.888Z,99640.80
2023-06-30T23:37:47.326Z,99641.40
2023-06-30T23:40:17.941Z,99646.20
2023-06-30T23:42:48.733Z,99643.80
2023-06-30T23:45:20.073Z,99645.20
2023-06-30T23:47:50.310Z,99644.60
2023-06-30T23:50:20.575Z,99648.80
2023-06-30T23:52:50.809Z,99647.40
2023-06-30T23:55:21.466Z,99653.20
2023-06-30T23:57:51.866Z,99652.00
